KAKO/AKO METAR and TAF weather

Enter ICAO airport designator
Station Type Date Time Source
KAKO METAR 2021/01/27 12:53 UTC NOAA

KAKO 271253Z AUTO 23009KT 10SM CLR M13/M16 A3005 RMK AO2 SLP254 T11331156 $


Station Type Date Time Source
KAKO Decoded METAR 2021/01/27 12:53 UTC NOAA

COLORADO PLAINS REGIONAL, CO, United States (KAKO) 40-10N 103-13W 1421M
Jan 27, 2021 - 07:53 AM EST / 2021.01.27 1253 UTC
Wind: from the SW (230 degrees) at 10 MPH (9 KT):0
Visibility: 10 mile(s):0
Sky conditions: clear
Temperature: 8.1 F (-13.3 C)
Windchill: -5 F (-21 C):2
Dew Point: 3.9 F (-15.6 C)
Relative Humidity: 82%
Pressure (altimeter): 30.05 in. Hg (1017 hPa)
ob: KAKO 271253Z AUTO 23009KT 10SM CLR M13/M16 A3005 RMK AO2 SLP254 T11331156
cycle: 13

Station Type Date Time Source
KAKO TAF UTC NOAA

Error!

Example: see airport list